createdAt,value
2019-02-05T00:00:33.733Z,15.43
2019-02-05T00:03:02.461Z,12.70
2019-02-05T00:05:30.771Z,13.83
2019-02-05T00:07:59.332Z,13.73
2019-02-05T00:10:27.750Z,16.17
2019-02-05T00:12:56.101Z,14.20
2019-02-05T00:15:24.350Z,13.37
2019-02-05T00:17:53.198Z,11.27
2019-02-05T00:20:21.502Z,12.47
2019-02-05T00:22:49.842Z,14.97
2019-02-05T00:25:18.110Z,14.23
2019-02-05T00:27:46.382Z,15.80
2019-02-05T00:30:17.590Z,14.27
2019-02-05T00:32:46.320Z,14.53
2019-02-05T00:35:14.561Z,14.37
2019-02-05T00:37:42.871Z,23.63
2019-02-05T00:40:13.411Z,17.17
2019-02-05T00:42:41.688Z,17.03
2019-02-05T00:45:20.421Z,15.97
2019-02-05T00:47:49.029Z,13.50
2019-02-05T00:50:18.607Z,16.80
2019-02-05T00:52:47.038Z,15.13
2019-02-05T00:55:17.736Z,17.10
2019-02-05T00:57:46.288Z,14.00
2019-02-05T01:00:29.685Z,13.83
2019-02-05T01:02:58.165Z,16.07
2019-02-05T01:05:26.507Z,15.57
2019-02-05T01:07:54.850Z,12.53
2019-02-05T01:10:23.916Z,17.20
2019-02-05T01:12:52.644Z,14.87
2019-02-05T01:15:22.559Z,12.67
2019-02-05T01:17:50.835Z,15.20
2019-02-05T01:20:20.192Z,17.23
2019-02-05T01:22:48.773Z,13.83
2019-02-05T01:25:18.353Z,13.27
2019-02-05T01:27:47.088Z,16.23
2019-02-05T01:30:26.420Z,13.23
2019-02-05T01:32:54.996Z,15.57
2019-02-05T01:35:23.611Z,16.97
2019-02-05T01:37:52.153Z,14.20
2019-02-05T01:40:23.153Z,13.90
2019-02-05T01:42:51.458Z,15.43
2019-02-05T01:45:20.758Z,13.67
2019-02-05T01:47:49.373Z,15.27
2019-02-05T01:50:20.315Z,16.17
2019-02-05T01:52:48.593Z,15.80
2019-02-05T01:55:16.847Z,14.93
2019-02-05T01:57:45.445Z,16.07
2019-02-05T02:00:25.749Z,12.63
2019-02-05T02:02:54.290Z,14.67
2019-02-05T02:05:22.614Z,13.97
2019-02-05T02:07:51.162Z,13.47
2019-02-05T02:10:25.506Z,15.93
2019-02-05T02:12:54.270Z,16.47
2019-02-05T02:15:22.522Z,16.30
2019-02-05T02:17:50.889Z,17.57
2019-02-05T02:20:20.245Z,13.97
2019-02-05T02:22:48.552Z,14.47
2019-02-05T02:25:17.144Z,13.17
2019-02-05T02:27:45.911Z,14.17
2019-02-05T02:30:20.404Z,17.13
2019-02-05T02:32:48.762Z,17.03
2019-02-05T02:35:17.421Z,15.13
2019-02-05T02:37:45.926Z,16.07
2019-02-05T02:40:14.370Z,15.20
2019-02-05T02:42:42.694Z,16.30
2019-02-05T02:45:13.322Z,12.90
2019-02-05T02:47:41.669Z,13.47
2019-02-05T02:50:18.751Z,17.70
2019-02-05T02:55:16.843Z,17.00
2019-02-05T02:57:45.425Z,13.97
2019-02-05T03:00:21.870Z,13.37
2019-02-05T03:02:54.321Z,16.47
2019-02-05T03:05:24.019Z,16.97
2019-02-05T03:07:52.337Z,14.93
2019-02-05T03:10:23.322Z,14.97
2019-02-05T03:12:51.668Z,14.50
2019-02-05T03:15:20.020Z,14.40
2019-02-05T03:17:48.432Z,15.27
2019-02-05T03:20:16.930Z,16.73
2019-02-05T03:22:45.457Z,14.47
2019-02-05T03:25:17.105Z,14.33
2019-02-05T03:27:45.398Z,12.60
2019-02-05T03:30:16.262Z,13.30
2019-02-05T03:32:44.603Z,16.37
2019-02-05T03:35:13.358Z,14.07
2019-02-05T03:37:41.623Z,13.83
2019-02-05T03:40:28.530Z,13.53
2019-02-05T03:42:57.003Z,11.07
2019-02-05T03:45:26.046Z,14.13
2019-02-05T03:47:54.526Z,12.70
2019-02-05T03:50:22.820Z,15.20
2019-02-05T03:53:11.494Z,14.27
2019-02-05T03:56:04.780Z,17.43
2019-02-05T03:58:54.610Z,15.33
2019-02-05T04:01:46.150Z,14.70
2019-02-05T04:04:17.775Z,12.90
2019-02-05T04:06:52.097Z,16.03
2019-02-05T04:09:23.722Z,12.07
2019-02-05T04:12:07.357Z,12.37
2019-02-05T04:14:53.634Z,14.33
2019-02-05T04:17:34.048Z,14.27
2019-02-05T04:20:23.262Z,13.00
2019-02-05T04:23:06.721Z,12.60
2019-02-05T04:25:50.146Z,14.73
2019-02-05T04:28:27.729Z,14.60
2019-02-05T04:31:32.570Z,13.97
2019-02-05T04:34:12.801Z,12.70
2019-02-05T04:37:10.029Z,12.93
2019-02-05T04:40:03.317Z,12.23
2019-02-05T04:42:35.403Z,13.63
2019-02-05T04:45:12.732Z,15.10
2019-02-05T04:48:17.077Z,16.17
2019-02-05T04:51:09.382Z,17.30
2019-02-05T04:54:06.377Z,14.30
2019-02-05T04:56:38.208Z,13.23
2019-02-05T04:59:21.547Z,12.33
2019-02-05T05:01:56.393Z,14.80
2019-02-05T05:04:28.325Z,13.57
2019-02-05T05:06:59.922Z,16.00
2019-02-05T05:09:54.537Z,12.00
2019-02-05T05:12:23.262Z,13.07
2019-02-05T05:14:51.599Z,15.53
2019-02-05T05:17:19.934Z,14.37
2019-02-05T05:19:48.208Z,14.23
2019-02-05T05:22:16.546Z,18.30
2019-02-05T05:24:44.963Z,15.13
2019-02-05T05:27:14.633Z,16.77
2019-02-05T05:29:43.283Z,13.67
2019-02-05T05:32:11.600Z,17.90
2019-02-05T05:34:40.062Z,18.37
2019-02-05T05:37:07.742Z,20.50
2019-02-05T05:39:36.332Z,18.33
2019-02-05T05:42:04.655Z,24.33
2019-02-05T05:44:32.919Z,23.47
2019-02-05T05:47:01.543Z,18.13
2019-02-05T05:49:29.837Z,16.73
2019-02-05T05:51:58.164Z,20.03
2019-02-05T05:54:26.597Z,14.53
2019-02-05T05:56:55.197Z,17.23
2019-02-05T05:59:23.530Z,16.40
2019-02-05T06:01:51.854Z,17.00
2019-02-05T06:04:20.483Z,15.53
2019-02-05T06:06:49.075Z,18.47
2019-02-05T06:09:17.446Z,15.13
2019-02-05T06:11:45.766Z,19.20
2019-02-05T06:14:14.110Z,16.53
2019-02-05T06:16:42.630Z,17.03
2019-02-05T06:19:11.011Z,12.87
2019-02-05T06:21:39.857Z,15.33
2019-02-05T06:24:08.178Z,17.23
2019-02-05T06:26:36.518Z,15.20
2019-02-05T06:29:04.897Z,14.83
2019-02-05T06:31:33.249Z,16.40
2019-02-05T06:34:01.799Z,14.97
2019-02-05T06:36:30.388Z,14.27
2019-02-05T06:38:58.996Z,14.87
2019-02-05T06:41:27.449Z,20.73
2019-02-05T06:43:55.767Z,18.53
2019-02-05T06:46:24.170Z,23.20
2019-02-05T06:48:52.733Z,18.97
2019-02-05T06:51:21.025Z,23.37
2019-02-05T06:53:49.283Z,20.70
2019-02-05T06:56:17.929Z,21.20
2019-02-05T06:58:46.818Z,25.33
2019-02-05T07:01:16.094Z,20.50
2019-02-05T07:03:44.695Z,20.10
2019-02-05T07:06:13.111Z,21.97
2019-02-05T07:08:42.539Z,17.97
2019-02-05T07:11:11.757Z,22.77
2019-02-05T07:13:40.303Z,21.17
2019-02-05T07:16:08.734Z,20.50
2019-02-05T07:18:37.422Z,24.57
2019-02-05T07:21:05.800Z,23.13
2019-02-05T07:23:34.113Z,20.97
2019-02-05T07:26:02.475Z,23.27
2019-02-05T07:28:30.803Z,20.90
2019-02-05T07:30:59.445Z,24.93
2019-02-05T07:33:27.714Z,23.43
2019-02-05T07:35:56.052Z,21.93
2019-02-05T07:38:24.406Z,24.10
2019-02-05T07:40:52.808Z,26.17
2019-02-05T07:43:21.133Z,26.40
2019-02-05T07:45:49.477Z,26.37
2019-02-05T07:48:17.962Z,22.50
2019-02-05T07:50:46.604Z,18.07
2019-02-05T07:53:14.943Z,18.50
2019-02-05T07:55:43.290Z,18.43
2019-02-05T07:58:11.637Z,23.93
2019-02-05T08:00:40.252Z,23.67
2019-02-05T08:03:08.528Z,22.53
2019-02-05T08:05:36.918Z,20.60
2019-02-05T08:08:06.183Z,24.07
2019-02-05T08:10:34.813Z,23.10
2019-02-05T08:13:03.601Z,22.47
2019-02-05T08:15:33.817Z,27.97
2019-02-05T08:18:02.153Z,28.93
2019-02-05T08:20:30.788Z,25.03
2019-02-05T08:22:59.506Z,26.83
2019-02-05T08:25:27.870Z,24.33
2019-02-05T08:27:56.466Z,24.23
2019-02-05T08:30:28.081Z,28.17
2019-02-05T08:32:56.394Z,28.33
2019-02-05T08:35:24.734Z,26.70
2019-02-05T08:37:53.109Z,32.70
2019-02-05T08:40:22.926Z,29.93
2019-02-05T08:42:51.265Z,40.77
2019-02-05T08:45:22.705Z,28.70
2019-02-05T08:47:51.085Z,30.17
2019-02-05T08:50:21.634Z,28.27
2019-02-05T08:52:49.992Z,26.50
2019-02-05T08:55:20.063Z,31.73
2019-02-05T08:57:49.655Z,34.40
2019-02-05T09:00:20.320Z,27.77
2019-02-05T09:02:49.141Z,26.20
2019-02-05T09:05:17.472Z,22.23
2019-02-05T09:07:45.740Z,24.40
2019-02-05T09:10:20.981Z,25.10
2019-02-05T09:12:49.292Z,23.10
2019-02-05T09:15:28.884Z,23.50
2019-02-05T09:17:47.599Z,24.27
2019-02-05T09:20:17.777Z,27.30
2019-02-05T09:22:46.114Z,33.33
2019-02-05T09:25:15.980Z,26.23
2019-02-05T09:27:44.351Z,25.07
2019-02-05T09:30:15.677Z,23.67
2019-02-05T09:32:43.958Z,23.20
2019-02-05T09:35:12.497Z,22.57
2019-02-05T09:37:40.847Z,25.63
2019-02-05T09:40:12.355Z,21.40
2019-02-05T09:42:40.723Z,23.97
2019-02-05T09:45:11.170Z,27.77
2019-02-05T09:47:39.834Z,22.20
2019-02-05T09:50:15.653Z,23.80
2019-02-05T09:52:44.015Z,26.53
2019-02-05T09:55:15.341Z,28.80
2019-02-05T09:57:43.708Z,24.93
2019-02-05T10:00:15.809Z,27.83
2019-02-05T10:02:44.174Z,30.53
2019-02-05T10:05:18.804Z,33.93
2019-02-05T10:07:47.576Z,32.83
2019-02-05T10:10:19.533Z,30.47
2019-02-05T10:12:48.250Z,30.13
2019-02-05T10:15:20.071Z,28.40
2019-02-05T10:17:48.413Z,40.50
2019-02-05T10:20:18.386Z,32.53
2019-02-05T10:22:48.082Z,31.30
2019-02-05T10:25:17.059Z,44.27
2019-02-05T10:27:45.886Z,30.83
2019-02-05T10:30:26.298Z,29.23
2019-02-05T10:32:55.024Z,30.40
2019-02-05T10:35:23.645Z,26.50
2019-02-05T10:37:52.015Z,31.50
2019-02-05T10:40:21.028Z,29.97
2019-02-05T10:42:49.365Z,19.33
2019-02-05T10:45:20.507Z,28.83
2019-02-05T10:47:48.848Z,21.53
2019-02-05T10:50:18.995Z,19.97
2019-02-05T10:52:47.802Z,28.40
2019-02-05T10:55:20.683Z,22.70
2019-02-05T10:57:50.686Z,25.00
2019-02-05T11:00:21.260Z,27.90
2019-02-05T11:02:49.722Z,22.83
2019-02-05T11:05:20.292Z,25.17
2019-02-05T11:07:48.732Z,26.17
2019-02-05T11:10:17.498Z,22.17
2019-02-05T11:12:45.915Z,22.43
2019-02-05T11:15:31.193Z,21.63
2019-02-05T11:17:59.836Z,20.23
2019-02-05T11:20:29.135Z,21.43
2019-02-05T11:22:58.038Z,22.13
2019-02-05T11:25:26.381Z,26.07
2019-02-05T11:27:54.838Z,25.90
2019-02-05T11:30:29.411Z,23.80
2019-02-05T11:32:57.763Z,22.70
2019-02-05T11:35:26.083Z,20.80
2019-02-05T11:37:54.504Z,21.80
2019-02-05T11:40:25.795Z,22.93
2019-02-05T11:42:54.492Z,21.30
2019-02-05T11:45:22.828Z,18.83
2019-02-05T11:47:51.544Z,19.33
2019-02-05T11:50:19.845Z,18.90
2019-02-05T11:52:48.586Z,21.50
2019-02-05T11:55:19.450Z,18.17
2019-02-05T11:57:47.851Z,16.33
2019-02-05T12:00:31.651Z,21.67
2019-02-05T12:02:49.790Z,16.03
2019-02-05T12:05:18.464Z,17.23
2019-02-05T12:07:50.180Z,17.97
2019-02-05T12:10:18.809Z,17.03
2019-02-05T12:12:47.499Z,17.03
2019-02-05T12:15:16.799Z,16.87
2019-02-05T12:17:45.145Z,19.80
2019-02-05T12:20:19.712Z,27.80
2019-02-05T12:22:49.405Z,20.23
2019-02-05T12:25:21.060Z,17.70
2019-02-05T12:27:49.797Z,16.90
2019-02-05T12:30:21.744Z,16.47
2019-02-05T12:32:50.165Z,16.20
2019-02-05T12:35:18.505Z,17.10
2019-02-05T12:37:46.861Z,18.93
2019-02-05T12:40:18.093Z,17.50
2019-02-05T12:42:46.925Z,19.13
2019-02-05T12:45:29.884Z,19.77
2019-02-05T12:47:58.594Z,16.50
2019-02-05T12:50:31.945Z,17.33
2019-02-05T12:53:01.092Z,18.47
2019-02-05T12:55:29.447Z,20.67
2019-02-05T12:57:58.147Z,16.80
2019-02-05T13:00:37.179Z,15.63
2019-02-05T13:03:06.345Z,18.47
2019-02-05T13:05:34.855Z,16.27
2019-02-05T13:08:05.498Z,18.20
2019-02-05T13:10:36.009Z,17.37
2019-02-05T13:13:05.317Z,16.80
2019-02-05T13:15:33.651Z,16.53
2019-02-05T13:18:01.951Z,18.23
2019-02-05T13:20:31.073Z,15.40
2019-02-05T13:22:59.712Z,18.90
2019-02-05T13:25:29.996Z,16.77
2019-02-05T13:27:58.408Z,19.03
2019-02-05T13:30:31.912Z,18.37
2019-02-05T13:33:00.173Z,16.33
2019-02-05T13:35:28.983Z,20.13
2019-02-05T13:37:57.242Z,16.60
2019-02-05T13:40:29.424Z,26.50
2019-02-05T13:42:58.108Z,18.70
2019-02-05T13:45:31.227Z,18.83
2019-02-05T13:47:59.814Z,19.30
2019-02-05T13:50:33.361Z,16.63
2019-02-05T13:53:00.273Z,17.37
2019-02-05T13:55:31.082Z,15.43
2019-02-05T13:57:59.528Z,17.43
2019-02-05T14:00:36.556Z,16.07
2019-02-05T14:03:06.602Z,14.77
2019-02-05T14:05:34.889Z,15.77
2019-02-05T14:08:03.208Z,18.83
2019-02-05T14:10:34.188Z,16.23
2019-02-05T14:13:02.480Z,14.83
2019-02-05T14:15:33.355Z,14.33
2019-02-05T14:18:01.883Z,17.60
2019-02-05T14:20:30.180Z,19.17
2019-02-05T14:22:58.604Z,15.10
2019-02-05T14:25:27.017Z,16.77
2019-02-05T14:27:55.413Z,14.23
2019-02-05T14:30:34.289Z,20.03
2019-02-05T14:33:03.114Z,18.77
2019-02-05T14:35:31.683Z,18.53
2019-02-05T14:38:00.352Z,19.40
2019-02-05T14:40:28.646Z,13.93
2019-02-05T14:42:56.951Z,15.90
2019-02-05T14:45:25.535Z,20.47
2019-02-05T14:47:53.958Z,16.80
2019-02-05T14:50:24.850Z,16.93
2019-02-05T14:52:53.180Z,20.07
2019-02-05T14:55:21.783Z,18.57
2019-02-05T14:57:50.093Z,15.87
2019-02-05T15:00:24.688Z,16.37
2019-02-05T15:02:53.683Z,18.13
2019-02-05T15:05:22.689Z,17.93
2019-02-05T15:07:51.421Z,16.83
2019-02-05T15:10:20.663Z,18.03
2019-02-05T15:12:48.980Z,16.27
2019-02-05T15:15:23.125Z,63.40
2019-02-05T15:17:51.677Z,20.03
2019-02-05T15:20:28.983Z,17.87
2019-02-05T15:22:57.280Z,16.47
2019-02-05T15:25:25.994Z,19.53
2019-02-05T15:27:54.328Z,16.40
2019-02-05T15:30:36.622Z,18.43
2019-02-05T15:33:13.585Z,16.83
2019-02-05T15:35:43.529Z,17.67
2019-02-05T15:38:11.771Z,16.20
2019-02-05T15:40:40.396Z,20.90
2019-02-05T15:43:08.670Z,20.83
2019-02-05T15:45:36.976Z,17.83
2019-02-05T15:48:05.626Z,19.00
2019-02-05T15:50:33.943Z,18.03
2019-02-05T15:53:02.218Z,25.13
2019-02-05T15:55:30.623Z,23.17
2019-02-05T15:57:59.456Z,21.93
2019-02-05T16:00:27.767Z,17.77
2019-02-05T16:02:56.091Z,21.37
2019-02-05T16:05:24.414Z,19.80
2019-02-05T16:07:52.673Z,18.17
2019-02-05T16:10:22.549Z,19.00
2019-02-05T16:12:51.306Z,22.30
2019-02-05T16:15:19.959Z,27.33
2019-02-05T16:17:48.213Z,19.77
2019-02-05T16:20:18.821Z,22.57
2019-02-05T16:22:47.083Z,20.60
2019-02-05T16:25:16.040Z,22.77
2019-02-05T16:27:44.389Z,19.17
2019-02-05T16:30:20.894Z,22.47
2019-02-05T16:32:49.150Z,20.33
2019-02-05T16:35:17.531Z,18.90
2019-02-05T16:37:45.933Z,18.93
2019-02-05T16:40:17.425Z,19.10
2019-02-05T16:42:46.047Z,19.57
2019-02-05T16:45:17.470Z,21.83
2019-02-05T16:47:45.970Z,25.17
2019-02-05T16:50:19.990Z,19.50
2019-02-05T16:52:54.346Z,22.07
2019-02-05T16:55:23.121Z,20.20
2019-02-05T16:57:51.864Z,23.23
2019-02-05T17:00:29.585Z,21.27
2019-02-05T17:02:58.170Z,20.80
2019-02-05T17:05:27.889Z,24.97
2019-02-05T17:07:56.571Z,22.03
2019-02-05T17:10:25.710Z,19.17
2019-02-05T17:12:54.192Z,23.33
2019-02-05T17:15:22.526Z,24.53
2019-02-05T17:17:50.980Z,24.00
2019-02-05T17:20:25.539Z,22.27
2019-02-05T17:22:54.109Z,19.03
2019-02-05T17:25:24.297Z,22.73
2019-02-05T17:27:53.192Z,22.53
2019-02-05T17:30:29.686Z,19.73
2019-02-05T17:32:57.997Z,21.17
2019-02-05T17:35:26.310Z,23.43
2019-02-05T17:37:55.148Z,22.40
2019-02-05T17:40:25.497Z,20.83
2019-02-05T17:42:55.181Z,20.93
2019-02-05T17:45:29.103Z,20.97
2019-02-05T17:47:57.924Z,19.33
2019-02-05T17:50:26.502Z,20.70
2019-02-05T17:52:55.116Z,20.83
2019-02-05T17:55:23.478Z,27.13
2019-02-05T17:57:52.074Z,21.17
2019-02-05T18:00:31.122Z,21.63
2019-02-05T18:02:59.636Z,25.70
2019-02-05T18:05:29.262Z,24.03
2019-02-05T18:07:57.925Z,20.30
2019-02-05T18:10:31.827Z,26.63
2019-02-05T18:13:00.210Z,26.70
2019-02-05T18:15:33.505Z,26.20
2019-02-05T18:18:01.981Z,27.33
2019-02-05T18:20:30.310Z,45.40
2019-02-05T18:22:59.007Z,34.47
2019-02-05T18:25:27.342Z,39.33
2019-02-05T18:27:55.993Z,38.47
2019-02-05T18:30:27.066Z,31.17
2019-02-05T18:33:03.219Z,25.57
2019-02-05T18:35:25.481Z,27.93
2019-02-05T18:37:54.102Z,27.13
2019-02-05T18:40:25.338Z,35.50
2019-02-05T18:42:53.726Z,24.77
2019-02-05T18:45:22.119Z,34.73
2019-02-05T18:47:50.572Z,23.70
2019-02-05T18:50:23.863Z,21.67
2019-02-05T18:52:52.231Z,24.03
2019-02-05T18:55:32.493Z,27.23
2019-02-05T18:58:08.699Z,28.23
2019-02-05T19:00:44.283Z,25.73
2019-02-05T19:03:16.012Z,24.77
2019-02-05T19:05:42.618Z,23.77
2019-02-05T19:08:11.299Z,27.50
2019-02-05T19:10:39.618Z,32.53
2019-02-05T19:13:07.968Z,27.17
2019-02-05T19:15:37.762Z,26.43
2019-02-05T19:18:07.273Z,24.83
2019-02-05T19:20:35.574Z,28.53
2019-02-05T19:23:05.686Z,28.17
2019-02-05T19:25:52.140Z,28.27
2019-02-05T19:28:22.232Z,26.57
2019-02-05T19:30:52.224Z,27.67
2019-02-05T19:33:27.105Z,33.53
2019-02-05T19:35:50.874Z,23.87
2019-02-05T19:38:19.204Z,26.30
2019-02-05T19:40:57.212Z,25.17
2019-02-05T19:43:18.168Z,24.03
2019-02-05T19:45:51.165Z,30.07
2019-02-05T19:48:21.243Z,25.13
2019-02-05T19:50:49.920Z,30.30
2019-02-05T19:53:18.567Z,30.00
2019-02-05T19:55:47.137Z,26.80
2019-02-05T19:58:15.826Z,31.03
2019-02-05T20:00:44.367Z,30.60
2019-02-05T20:03:13.048Z,24.77
2019-02-05T20:05:41.410Z,30.50
2019-02-05T20:08:09.734Z,30.10
2019-02-05T20:10:38.158Z,28.00
2019-02-05T20:13:06.533Z,26.10
2019-02-05T20:15:34.789Z,29.60
2019-02-05T20:18:03.144Z,29.17
2019-02-05T20:20:31.924Z,28.73
2019-02-05T20:23:00.261Z,40.40
2019-02-05T20:25:28.575Z,33.17
2019-02-05T20:27:56.996Z,28.93
2019-02-05T20:30:26.798Z,28.90
2019-02-05T20:32:55.117Z,29.07
2019-02-05T20:35:23.423Z,31.07
2019-02-05T20:37:52.047Z,39.13
2019-02-05T20:40:24.853Z,30.13
2019-02-05T20:42:53.209Z,31.33
2019-02-05T20:45:21.685Z,34.73
2019-02-05T20:47:50.115Z,30.73
2019-02-05T20:50:21.755Z,31.33
2019-02-05T20:52:50.092Z,29.17
2019-02-05T20:55:24.022Z,29.27
2019-02-05T20:57:52.356Z,28.97
2019-02-05T21:00:22.595Z,29.53
2019-02-05T21:02:50.944Z,31.90
2019-02-05T21:05:20.399Z,31.10
2019-02-05T21:07:49.095Z,30.73
2019-02-05T21:10:20.100Z,28.73
2019-02-05T21:12:48.687Z,30.33
2019-02-05T21:15:17.111Z,29.83
2019-02-05T21:17:45.345Z,28.27
2019-02-05T21:20:28.449Z,34.03
2019-02-05T21:22:47.920Z,32.27
2019-02-05T21:25:18.591Z,29.93
2019-02-05T21:27:46.910Z,33.83
2019-02-05T21:30:17.596Z,25.83
2019-02-05T21:32:47.841Z,31.70
2019-02-05T21:35:16.226Z,36.13
2019-02-05T21:37:44.605Z,29.03
2019-02-05T21:40:19.292Z,32.23
2019-02-05T21:42:47.997Z,32.90
2019-02-05T21:45:19.513Z,28.97
2019-02-05T21:47:48.123Z,35.60
2019-02-05T21:50:21.050Z,34.50
2019-02-05T21:52:49.842Z,29.43
2019-02-05T21:55:19.764Z,32.27
2019-02-05T21:57:48.094Z,31.43
2019-02-05T22:00:31.404Z,32.83
2019-02-05T22:02:59.803Z,31.83
2019-02-05T22:05:29.915Z,33.63
2019-02-05T22:07:58.311Z,32.30
2019-02-05T22:10:27.075Z,28.97
2019-02-05T22:12:55.381Z,29.80
2019-02-05T22:15:23.994Z,29.53
2019-02-05T22:17:52.597Z,29.73
2019-02-05T22:20:28.299Z,32.53
2019-02-05T22:22:57.121Z,32.73
2019-02-05T22:25:31.047Z,35.50
2019-02-05T22:27:59.662Z,38.43
2019-02-05T22:30:33.963Z,32.67
2019-02-05T22:33:02.273Z,31.30
2019-02-05T22:35:30.903Z,34.33
2019-02-05T22:37:59.232Z,33.30
2019-02-05T22:40:28.379Z,29.60
2019-02-05T22:42:57.060Z,26.17
2019-02-05T22:45:28.072Z,33.40
2019-02-05T22:47:56.714Z,31.80
2019-02-05T22:50:29.635Z,31.70
2019-02-05T22:52:57.958Z,33.53
2019-02-05T22:55:26.282Z,32.97
2019-02-05T22:57:55.017Z,33.53
2019-02-05T23:00:45.726Z,32.70
2019-02-05T23:03:14.166Z,38.83
2019-02-05T23:05:54.762Z,32.47
2019-02-05T23:08:23.154Z,37.87
2019-02-05T23:11:14.257Z,34.43
2019-02-05T23:13:42.607Z,34.80
2019-02-05T23:16:10.969Z,33.70
2019-02-05T23:18:39.336Z,41.33
2019-02-05T23:21:08.246Z,36.53
2019-02-05T23:23:36.857Z,33.17
2019-02-05T23:26:05.342Z,34.47
2019-02-05T23:28:34.344Z,35.13
2019-02-05T23:31:02.749Z,32.70
2019-02-05T23:33:31.096Z,34.67
2019-02-05T23:35:59.391Z,35.07
2019-02-05T23:38:30.011Z,31.10
2019-02-05T23:40:58.432Z,28.97
2019-02-05T23:43:26.849Z,36.33
2019-02-05T23:46:01.436Z,32.13
2019-02-05T23:48:25.453Z,30.17
2019-02-05T23:50:53.741Z,29.43
2019-02-05T23:53:22.092Z,31.97
2019-02-05T23:55:50.443Z,26.20
2019-02-05T23:58:18.802Z,31.80
